createdAt,value
2023-04-02T00:00:18.512Z,3.92
2023-04-02T00:02:58.837Z,3.83
2023-04-02T00:05:51.290Z,3.83
2023-04-02T00:08:26.097Z,3.50
2023-04-02T00:10:57.978Z,4.80
2023-04-02T00:13:33.989Z,6.10
2023-04-02T00:16:08.364Z,5.00
2023-04-02T00:18:44.233Z,4.77
2023-04-02T00:21:21.191Z,6.47
2023-04-02T00:23:49.197Z,7.30
2023-04-02T00:26:25.348Z,5.30
2023-04-02T00:28:53.711Z,7.67
2023-04-02T00:31:23.645Z,6.43
2023-04-02T00:33:53.171Z,6.27
2023-04-02T00:36:26.558Z,7.30
2023-04-02T00:38:59.520Z,7.40
2023-04-02T00:41:31.968Z,7.70
2023-04-02T00:44:01.451Z,6.77
2023-04-02T00:46:46.662Z,7.40
2023-04-02T00:49:35.112Z,8.23
2023-04-02T00:52:08.226Z,11.23
2023-04-02T00:57:33.476Z,10.50
2023-04-02T01:00:19.767Z,9.30
2023-04-02T01:06:03.091Z,10.73
2023-04-02T01:08:56.446Z,8.43
2023-04-02T01:11:47.539Z,9.53
2023-04-02T01:14:34.817Z,12.20
2023-04-02T01:17:20.521Z,13.37
2023-04-02T01:20:34.192Z,10.93
2023-04-02T01:23:09.148Z,7.33
2023-04-02T01:25:45.678Z,10.27
2023-04-02T01:28:20.456Z,6.80
2023-04-02T01:30:56.002Z,13.03
2023-04-02T01:33:30.737Z,12.18
2023-04-02T01:36:11.439Z,8.67
2023-04-02T01:38:51.683Z,13.30
2023-04-02T01:41:32.558Z,8.23
2023-04-02T01:44:07.761Z,11.33
2023-04-02T01:46:42.264Z,12.45
2023-04-02T01:49:15.472Z,10.63
2023-04-02T01:51:50.767Z,10.63
2023-04-02T01:54:22.197Z,13.57
2023-04-02T01:56:51.755Z,10.07
2023-04-02T01:59:22.570Z,12.90
2023-04-02T02:02:03.075Z,10.53
2023-04-02T02:04:34.410Z,11.03
2023-04-02T02:07:05.039Z,5.97
2023-04-02T02:09:35.946Z,10.50
2023-04-02T02:12:05.690Z,10.73
2023-04-02T02:14:33.595Z,9.50
2023-04-02T02:17:15.766Z,13.43
2023-04-02T02:19:47.831Z,19.93
2023-04-02T02:22:27.777Z,17.37
2023-04-02T02:24:57.847Z,14.50
2023-04-02T02:27:50.538Z,14.33
2023-04-02T02:30:27.013Z,10.67
2023-04-02T02:33:05.271Z,9.00
2023-04-02T02:35:43.160Z,16.43
2023-04-02T02:38:41.576Z,9.10
2023-04-02T02:41:24.516Z,10.90
2023-04-02T02:44:03.141Z,11.53
2023-04-02T02:46:34.174Z,13.30
2023-04-02T02:49:07.161Z,14.27
2023-04-02T02:51:46.215Z,13.07
2023-04-02T02:54:20.914Z,11.70
2023-04-02T02:56:55.744Z,15.67
2023-04-02T02:59:24.813Z,14.63
2023-04-02T03:01:53.674Z,11.57
2023-04-02T03:04:25.085Z,13.73
2023-04-02T03:06:58.567Z,10.27
2023-04-02T03:09:41.872Z,12.77
2023-04-02T03:12:32.666Z,13.10
2023-04-02T03:15:12.378Z,7.37
2023-04-02T03:17:51.443Z,11.13
2023-04-02T03:20:31.159Z,11.20
2023-04-02T03:23:13.136Z,8.83
2023-04-02T03:25:56.205Z,11.93
2023-04-02T03:28:32.811Z,7.70
2023-04-02T03:31:06.879Z,13.40
2023-04-02T03:33:42.207Z,12.50
2023-04-02T03:36:22.798Z,15.82
2023-04-02T03:39:01.070Z,14.73
2023-04-02T03:41:39.273Z,16.53
2023-04-02T03:44:24.012Z,9.27
2023-04-02T03:46:58.039Z,8.40
2023-04-02T03:49:36.691Z,10.87
2023-04-02T03:52:12.260Z,11.85
2023-04-02T03:54:54.254Z,13.93
2023-04-02T03:57:33.886Z,10.23
2023-04-02T04:00:16.434Z,7.87
2023-04-02T04:02:50.806Z,6.90
2023-04-02T04:05:26.126Z,11.00
2023-04-02T04:08:03.074Z,4.63
2023-04-02T04:10:33.236Z,11.00
2023-04-02T04:13:09.758Z,11.50
2023-04-02T04:15:48.182Z,10.40
2023-04-02T04:18:29.818Z,11.70
2023-04-02T04:21:03.525Z,9.27
2023-04-02T04:23:41.239Z,7.83
2023-04-02T04:26:24.747Z,8.73
2023-04-02T04:29:13.998Z,9.23
2023-04-02T04:31:47.190Z,9.53
2023-04-02T04:34:25.051Z,8.07
2023-04-02T04:37:01.683Z,9.43
2023-04-02T04:39:47.159Z,9.47
2023-04-02T04:42:23.959Z,7.80
2023-04-02T04:45:00.426Z,8.63
2023-04-02T04:47:35.996Z,11.60
2023-04-02T04:50:11.474Z,12.63
2023-04-02T04:52:43.518Z,9.07
2023-04-02T04:55:28.705Z,9.93
2023-04-02T05:00:54.134Z,9.13
2023-04-02T05:03:33.512Z,7.40
2023-04-02T05:06:11.818Z,5.30
2023-04-02T05:08:49.120Z,11.93
2023-04-02T05:11:30.458Z,7.97
2023-04-02T05:14:05.349Z,9.63
2023-04-02T05:16:42.217Z,9.23
2023-04-02T05:19:18.711Z,7.23
2023-04-02T05:21:55.664Z,7.73
2023-04-02T05:24:44.086Z,7.47
2023-04-02T05:27:29.052Z,8.23
2023-04-02T05:30:09.641Z,9.97
2023-04-02T05:32:45.986Z,5.00
2023-04-02T05:35:19.315Z,7.73
2023-04-02T05:37:48.990Z,7.50
2023-04-02T05:40:27.722Z,5.90
2023-04-02T05:43:01.438Z,5.27
2023-04-02T05:45:35.538Z,6.93
2023-04-02T05:48:17.205Z,5.63
2023-04-02T05:50:51.539Z,8.93
2023-04-02T05:53:33.479Z,7.27
2023-04-02T05:58:45.740Z,6.63
2023-04-02T06:01:39.137Z,3.27
2023-04-02T06:04:28.752Z,6.00
2023-04-02T06:07:08.849Z,5.50
2023-04-02T06:09:46.714Z,6.20
2023-04-02T06:12:28.576Z,5.53
2023-04-02T06:14:58.785Z,6.77
2023-04-02T06:17:33.363Z,9.07
2023-04-02T06:20:06.737Z,7.20
2023-04-02T06:22:39.200Z,6.63
2023-04-02T06:25:20.527Z,6.70
2023-04-02T06:27:53.909Z,11.50
2023-04-02T06:30:30.802Z,5.87
2023-04-02T06:32:59.248Z,5.40
2023-04-02T06:35:28.527Z,5.40
2023-04-02T06:38:07.053Z,4.60
2023-04-02T06:40:44.647Z,7.10
2023-04-02T06:43:33.514Z,4.50
2023-04-02T06:46:34.212Z,6.50
2023-04-02T06:49:23.346Z,3.73
2023-04-02T06:51:58.487Z,4.60
2023-04-02T06:54:27.189Z,5.53
2023-04-02T06:57:00.118Z,4.10
2023-04-02T06:59:34.722Z,4.57
2023-04-02T07:02:26.053Z,5.17
2023-04-02T07:05:01.443Z,6.33
2023-04-02T07:07:30.475Z,7.97
2023-04-02T07:09:59.434Z,5.03
2023-04-02T07:12:27.667Z,4.73
2023-04-02T07:14:56.362Z,5.77
2023-04-02T07:17:26.432Z,5.17
2023-04-02T07:19:54.312Z,3.37
2023-04-02T07:22:22.777Z,4.50
2023-04-02T07:24:55.467Z,4.93
2023-04-02T07:27:23.274Z,3.83
2023-04-02T07:29:51.026Z,3.50
2023-04-02T07:32:19.861Z,7.07
2023-04-02T07:34:48.986Z,5.00
2023-04-02T07:37:17.185Z,4.77
2023-04-02T07:39:45.242Z,5.13
2023-04-02T07:42:13.053Z,4.60
2023-04-02T07:44:41.024Z,4.83
2023-04-02T07:47:10.728Z,5.80
2023-04-02T07:49:38.489Z,3.80
2023-04-02T07:52:07.673Z,5.50
2023-04-02T07:54:35.895Z,6.10
2023-04-02T07:57:04.017Z,4.37
2023-04-02T07:59:31.780Z,6.30
2023-04-02T08:01:59.691Z,5.40
2023-04-02T08:04:27.591Z,4.53
2023-04-02T08:06:55.308Z,3.07
2023-04-02T08:09:24.526Z,4.40
2023-04-02T08:11:52.575Z,6.67
2023-04-02T08:14:20.428Z,5.60
2023-04-02T08:16:51.917Z,3.90
2023-04-02T08:19:20.603Z,4.87
2023-04-02T08:21:51.538Z,5.77
2023-04-02T08:24:20.323Z,4.30
2023-04-02T08:26:51.392Z,4.37
2023-04-02T08:29:19.459Z,3.27
2023-04-02T08:31:47.878Z,3.77
2023-04-02T08:34:15.821Z,4.63
2023-04-02T08:36:45.432Z,4.63
2023-04-02T08:39:13.817Z,5.43
2023-04-02T08:41:47.317Z,2.77
2023-04-02T08:44:40.998Z,3.87
2023-04-02T08:47:10.941Z,4.73
2023-04-02T08:49:58.336Z,4.97
2023-04-02T08:52:31.334Z,5.33
2023-04-02T08:55:01.477Z,3.50
2023-04-02T08:57:41.702Z,3.80
2023-04-02T09:00:32.530Z,3.10
2023-04-02T09:03:08.708Z,3.20
2023-04-02T09:05:42.857Z,4.67
2023-04-02T09:08:19.823Z,2.60
2023-04-02T09:10:59.185Z,3.60
2023-04-02T09:13:33.189Z,3.87
2023-04-02T09:16:11.238Z,2.53
2023-04-02T09:18:40.590Z,3.47
2023-04-02T09:21:33.136Z,3.20
2023-04-02T09:24:02.823Z,1.70
2023-04-02T09:26:33.900Z,2.97
2023-04-02T09:29:25.231Z,4.33
2023-04-02T09:32:07.468Z,5.17
2023-04-02T09:34:37.027Z,3.07
2023-04-02T09:37:09.705Z,2.37
2023-04-02T09:39:38.187Z,2.93
2023-04-02T09:42:08.507Z,3.97
2023-04-02T09:44:37.103Z,5.23
2023-04-02T09:47:25.012Z,2.60
2023-04-02T09:49:53.347Z,5.60
2023-04-02T09:52:28.388Z,2.80
2023-04-02T09:55:21.897Z,2.50
2023-04-02T09:58:05.833Z,2.30
2023-04-02T10:00:34.425Z,2.73
2023-04-02T10:03:14.790Z,5.00
2023-04-02T10:05:44.041Z,3.20
2023-04-02T10:08:20.837Z,3.70
2023-04-02T10:10:54.806Z,3.97
2023-04-02T10:13:30.097Z,5.07
2023-04-02T10:16:04.054Z,2.92
2023-04-02T10:18:44.572Z,4.60
2023-04-02T10:21:18.441Z,3.00
2023-04-02T10:23:46.817Z,3.97
2023-04-02T10:26:46.825Z,3.07
2023-04-02T10:29:34.176Z,8.07
2023-04-02T10:32:12.520Z,2.17
2023-04-02T10:34:53.043Z,2.90
2023-04-02T10:38:09.689Z,3.97
2023-04-02T10:40:47.160Z,4.38
2023-04-02T10:44:16.666Z,3.07
2023-04-02T10:47:04.338Z,4.33
2023-04-02T10:49:42.968Z,4.33
2023-04-02T10:52:21.503Z,3.60
2023-04-02T10:54:52.798Z,3.57
2023-04-02T10:57:34.737Z,3.27
2023-04-02T11:00:20.218Z,2.87
2023-04-02T11:02:58.665Z,3.03
2023-04-02T11:05:43.384Z,2.20
2023-04-02T11:08:20.780Z,3.23
2023-04-02T11:10:55.858Z,3.63
2023-04-02T11:13:31.140Z,4.20
2023-04-02T11:15:59.666Z,3.95
2023-04-02T11:18:36.081Z,3.33
2023-04-02T11:21:28.495Z,3.63
2023-04-02T11:24:01.633Z,3.93
2023-04-02T11:26:41.265Z,3.80
2023-04-02T11:29:21.528Z,3.83
2023-04-02T11:32:11.697Z,4.30
2023-04-02T11:35:25.868Z,4.00
2023-04-02T11:37:56.862Z,4.83
2023-04-02T11:40:48.361Z,2.83
2023-04-02T11:44:00.294Z,4.73
2023-04-02T11:46:45.805Z,2.53
2023-04-02T11:49:56.882Z,2.95
2023-04-02T11:52:31.395Z,3.83
2023-04-02T11:55:17.524Z,4.47
2023-04-02T11:58:32.336Z,3.03
2023-04-02T12:01:30.112Z,5.20
2023-04-02T12:04:54.879Z,2.90
2023-04-02T12:07:52.397Z,5.40
2023-04-02T12:10:23.652Z,4.80
2023-04-02T12:12:52.058Z,2.93
2023-04-02T12:15:43.129Z,4.80
2023-04-02T12:18:21.532Z,4.37
2023-04-02T12:20:52.555Z,4.40
2023-04-02T12:23:24.466Z,4.00
2023-04-02T12:25:59.983Z,5.60
2023-04-02T12:31:13.076Z,4.00
2023-04-02T12:33:42.915Z,3.50
2023-04-02T12:36:21.299Z,3.27
2023-04-02T12:38:52.341Z,3.57
2023-04-02T12:41:27.183Z,4.20
2023-04-02T12:44:00.410Z,3.58
2023-04-02T12:46:32.340Z,4.37
2023-04-02T12:49:06.783Z,3.40
2023-04-02T12:51:37.640Z,3.67
2023-04-02T12:54:06.318Z,2.77
2023-04-02T12:56:34.362Z,3.00
2023-04-02T12:59:02.400Z,2.77
2023-04-02T13:01:33.897Z,2.63
2023-04-02T13:04:05.036Z,2.83
2023-04-02T13:06:35.701Z,3.13
2023-04-02T13:09:07.507Z,2.40
2023-04-02T13:11:38.434Z,3.30
2023-04-02T13:14:16.755Z,3.20
2023-04-02T13:16:48.133Z,3.10
2023-04-02T13:19:30.934Z,2.93
2023-04-02T13:22:02.434Z,3.90
2023-04-02T13:24:33.331Z,3.60
2023-04-02T13:27:03.619Z,2.37
2023-04-02T13:29:33.891Z,3.63
2023-04-02T13:32:07.800Z,3.37
2023-04-02T13:34:35.911Z,2.90
2023-04-02T13:37:03.940Z,5.40
2023-04-02T13:39:31.939Z,3.30
2023-04-02T13:42:03.029Z,2.07
2023-04-02T13:44:34.399Z,3.80
2023-04-02T13:47:04.131Z,3.73
2023-04-02T13:49:32.443Z,2.90
2023-04-02T13:52:04.269Z,4.03
2023-04-02T13:54:41.170Z,2.57
2023-04-02T13:57:09.180Z,4.27
2023-04-02T13:59:37.215Z,3.57
2023-04-02T14:02:13.679Z,2.63
2023-04-02T14:04:49.269Z,2.57
2023-04-02T14:07:46.876Z,3.07
2023-04-02T14:10:32.697Z,4.40
2023-04-02T14:16:01.624Z,3.83
2023-04-02T14:18:47.579Z,2.63
2023-04-02T14:21:27.189Z,2.43
2023-04-02T14:24:15.538Z,4.17
2023-04-02T14:26:57.862Z,3.87
2023-04-02T14:29:35.431Z,4.63
2023-04-02T14:32:10.619Z,2.63
2023-04-02T14:34:54.934Z,3.40
2023-04-02T14:37:37.890Z,3.20
2023-04-02T14:40:21.884Z,2.03
2023-04-02T14:43:00.623Z,3.63
2023-04-02T14:45:49.789Z,3.83
2023-04-02T14:48:32.950Z,2.70
2023-04-02T14:51:10.269Z,3.37
2023-04-02T14:53:54.317Z,1.80
2023-04-02T14:56:24.969Z,3.53
2023-04-02T14:59:12.175Z,4.03
2023-04-02T15:01:45.039Z,4.23
2023-04-02T15:04:19.351Z,3.40
2023-04-02T15:06:55.506Z,2.27
2023-04-02T15:09:30.276Z,5.60
2023-04-02T15:12:07.499Z,2.67
2023-04-02T15:14:40.942Z,3.20
2023-04-02T15:17:11.922Z,2.70
2023-04-02T15:19:40.337Z,2.07
2023-04-02T15:22:27.355Z,4.60
2023-04-02T15:25:16.633Z,2.10
2023-04-02T15:28:01.937Z,3.10
2023-04-02T15:30:35.708Z,1.88
2023-04-02T15:33:38.832Z,3.10
2023-04-02T15:36:40.387Z,2.97
2023-04-02T15:40:03.174Z,3.47
2023-04-02T15:42:39.429Z,3.03
2023-04-02T15:45:30.439Z,2.97
2023-04-02T15:48:18.746Z,3.90
2023-04-02T15:51:03.714Z,4.37
2023-04-02T15:53:48.072Z,3.33
2023-04-02T15:56:46.092Z,2.20
2023-04-02T15:59:40.904Z,3.43
2023-04-02T16:02:39.445Z,2.10
2023-04-02T16:05:27.249Z,3.03
2023-04-02T16:08:27.349Z,4.30
2023-04-02T16:10:55.774Z,2.50
2023-04-02T16:13:33.999Z,3.53
2023-04-02T16:16:07.318Z,2.47
2023-04-02T16:18:49.826Z,4.63
2023-04-02T16:21:35.540Z,3.03
2023-04-02T16:24:12.837Z,3.38
2023-04-02T16:27:00.040Z,3.63
2023-04-02T16:29:55.896Z,3.93
2023-04-02T16:32:54.070Z,3.30
2023-04-02T16:35:47.123Z,4.17
2023-04-02T16:38:43.520Z,3.50
2023-04-02T16:41:27.214Z,5.78
2023-04-02T16:44:15.850Z,3.47
2023-04-02T16:47:03.423Z,3.50
2023-04-02T16:49:43.379Z,3.00
2023-04-02T16:52:42.102Z,3.60
2023-04-02T16:55:46.817Z,3.13
2023-04-02T16:58:37.773Z,4.23
2023-04-02T17:01:22.785Z,2.30
2023-04-02T17:04:14.766Z,4.17
2023-04-02T17:07:01.690Z,3.30
2023-04-02T17:09:44.610Z,3.70
2023-04-02T17:12:21.008Z,5.17
2023-04-02T17:14:57.480Z,5.37
2023-04-02T17:17:27.663Z,2.97
2023-04-02T17:20:09.842Z,2.20
2023-04-02T17:22:37.992Z,4.33
2023-04-02T17:25:23.287Z,3.70
2023-04-02T17:27:58.046Z,4.70
2023-04-02T17:30:41.117Z,3.75
2023-04-02T17:33:13.661Z,3.93
2023-04-02T17:36:05.606Z,2.90
2023-04-02T17:38:50.929Z,4.50
2023-04-02T17:41:28.984Z,5.38
2023-04-02T17:44:08.866Z,4.20
2023-04-02T17:46:47.717Z,5.43
2023-04-02T17:49:25.069Z,4.07
2023-04-02T17:52:03.350Z,5.60
2023-04-02T17:54:46.682Z,4.10
2023-04-02T17:57:34.481Z,5.23
2023-04-02T18:00:22.883Z,5.23
2023-04-02T18:03:25.611Z,6.13
2023-04-02T18:06:03.631Z,6.10
2023-04-02T18:08:49.494Z,6.00
2023-04-02T18:11:31.977Z,5.32
2023-04-02T18:14:09.150Z,6.40
2023-04-02T18:16:49.798Z,6.93
2023-04-02T18:19:23.864Z,7.07
2023-04-02T18:22:02.196Z,4.47
2023-04-02T18:25:06.742Z,4.80
2023-04-02T18:27:57.946Z,3.73
2023-04-02T18:30:36.292Z,7.87
2023-04-02T18:33:26.703Z,8.87
2023-04-02T18:36:06.493Z,15.10
2023-04-02T18:38:47.598Z,7.17
2023-04-02T18:41:40.319Z,5.83
2023-04-02T18:44:25.601Z,5.97
2023-04-02T18:46:59.530Z,4.30
2023-04-02T18:49:36.167Z,5.47
2023-04-02T18:52:12.548Z,7.87
2023-04-02T18:54:46.443Z,6.07
2023-04-02T18:57:22.853Z,5.20
2023-04-02T19:00:00.284Z,6.37
2023-04-02T19:02:41.293Z,9.40
2023-04-02T19:05:23.632Z,7.77
2023-04-02T19:08:02.526Z,6.77
2023-04-02T19:10:36.758Z,8.03
2023-04-02T19:13:14.341Z,5.13
2023-04-02T19:16:07.588Z,4.73
2023-04-02T19:18:51.709Z,4.90
2023-04-02T19:21:31.594Z,4.47
2023-04-02T19:24:22.190Z,5.80
2023-04-02T19:26:59.022Z,6.40
2023-04-02T19:29:49.374Z,5.30
2023-04-02T19:32:33.549Z,5.37
2023-04-02T19:35:16.146Z,6.27
2023-04-02T19:37:57.836Z,7.40
2023-04-02T19:40:39.744Z,6.33
2023-04-02T19:43:10.715Z,5.23
2023-04-02T19:45:43.478Z,4.47
2023-04-02T19:48:17.703Z,7.40
2023-04-02T19:50:46.931Z,6.67
2023-04-02T19:53:15.926Z,6.13
2023-04-02T19:55:45.558Z,6.43
2023-04-02T19:58:25.933Z,6.30
2023-04-02T20:00:55.459Z,5.33
2023-04-02T20:03:23.936Z,5.30
2023-04-02T20:05:52.379Z,4.43
2023-04-02T20:08:20.882Z,5.97
2023-04-02T20:10:49.242Z,3.73
2023-04-02T20:13:17.180Z,4.07
2023-04-02T20:15:45.131Z,4.93
2023-04-02T20:18:14.409Z,3.93
2023-04-02T20:20:46.086Z,4.13
2023-04-02T20:23:15.704Z,6.47
2023-04-02T20:25:46.366Z,3.57
2023-04-02T20:28:14.469Z,2.90
2023-04-02T20:30:42.337Z,4.27
2023-04-02T20:33:10.502Z,2.93
2023-04-02T20:35:40.062Z,5.07
2023-04-02T20:38:08.928Z,4.50
2023-04-02T20:40:40.517Z,3.63
2023-04-02T20:43:09.549Z,4.17
2023-04-02T20:45:37.912Z,3.70
2023-04-02T20:48:07.797Z,3.73
2023-04-02T20:50:36.224Z,3.40
2023-04-02T20:53:08.117Z,3.37
2023-04-02T20:55:37.913Z,2.63
2023-04-02T20:58:05.952Z,3.70
2023-04-02T21:00:33.898Z,3.27
2023-04-02T21:03:02.162Z,4.33
2023-04-02T21:05:33.283Z,4.40
2023-04-02T21:08:01.311Z,2.90
2023-04-02T21:10:30.614Z,4.73
2023-04-02T21:12:58.366Z,2.63
2023-04-02T21:15:26.292Z,6.07
2023-04-02T21:17:54.126Z,2.03
2023-04-02T21:20:22.002Z,3.10
2023-04-02T21:22:52.227Z,3.17
2023-04-02T21:25:20.206Z,3.87
2023-04-02T21:27:49.689Z,2.93
2023-04-02T21:30:20.499Z,4.07
2023-04-02T21:32:53.597Z,4.67
2023-04-02T21:35:21.934Z,3.83
2023-04-02T21:37:53.140Z,6.00
2023-04-02T21:40:24.148Z,3.23
2023-04-02T21:42:55.954Z,3.33
2023-04-02T21:45:23.882Z,3.77
2023-04-02T21:47:51.770Z,4.30
2023-04-02T21:50:19.646Z,4.13
2023-04-02T21:52:47.627Z,3.40
2023-04-02T21:55:18.459Z,3.90
2023-04-02T21:57:46.421Z,3.83
2023-04-02T22:00:17.335Z,4.30
2023-04-02T22:02:45.428Z,3.80
2023-04-02T22:05:13.592Z,3.33
2023-04-02T22:07:41.470Z,3.20
2023-04-02T22:10:10.533Z,2.83
2023-04-02T22:12:38.433Z,3.17
2023-04-02T22:15:07.360Z,3.67
2023-04-02T22:17:36.600Z,5.53
2023-04-02T22:20:05.545Z,4.07
2023-04-02T22:22:33.358Z,6.67
2023-04-02T22:25:01.701Z,3.97
2023-04-02T22:27:29.636Z,4.50
2023-04-02T22:29:57.735Z,3.80
2023-04-02T22:32:26.104Z,4.97
2023-04-02T22:34:58.588Z,4.90
2023-04-02T22:37:26.654Z,3.63
2023-04-02T22:39:55.118Z,4.17
2023-04-02T22:42:23.132Z,4.40
2023-04-02T22:44:50.982Z,5.73
2023-04-02T22:47:18.831Z,3.10
2023-04-02T22:49:46.772Z,4.03
2023-04-02T22:52:16.203Z,4.57
2023-04-02T22:54:44.053Z,3.70
2023-04-02T22:57:12.856Z,3.37
2023-04-02T22:59:40.857Z,5.37
2023-04-02T23:02:08.747Z,3.47
2023-04-02T23:04:36.787Z,4.97
2023-04-02T23:07:04.710Z,6.13
2023-04-02T23:09:33.883Z,4.53
2023-04-02T23:12:01.660Z,6.00
2023-04-02T23:14:29.616Z,5.53
2023-04-02T23:16:57.688Z,5.30
2023-04-02T23:19:25.657Z,3.53
2023-04-02T23:21:53.517Z,5.13
2023-04-02T23:24:21.492Z,5.50
2023-04-02T23:26:50.893Z,3.97
2023-04-02T23:29:18.939Z,4.50
2023-04-02T23:31:47.047Z,4.13
2023-04-02T23:34:15.347Z,5.20
2023-04-02T23:36:43.320Z,6.43
2023-04-02T23:39:13.658Z,3.97
2023-04-02T23:41:42.963Z,5.30
2023-04-02T23:44:12.390Z,6.47
2023-04-02T23:46:40.180Z,4.70
2023-04-02T23:49:12.505Z,6.77
2023-04-02T23:51:40.844Z,7.00
2023-04-02T23:54:10.661Z,4.17
2023-04-02T23:56:38.621Z,4.53
2023-04-02T23:59:06.930Z,3.87
